createdAt,value
2018-09-04T00:02:15.309Z,42.47
2018-09-04T00:04:47.023Z,40.57
2018-09-04T00:07:18.759Z,40.43
2018-09-04T00:09:47.493Z,39.83
2018-09-04T00:12:16.119Z,39.03
2018-09-04T00:14:44.706Z,39.80
2018-09-04T00:17:13.378Z,38.50
2018-09-04T00:19:41.996Z,42.90
2018-09-04T00:22:10.732Z,41.87
2018-09-04T00:24:39.346Z,43.13
2018-09-04T00:27:08.040Z,38.67
2018-09-04T00:29:36.569Z,39.90
2018-09-04T00:32:05.225Z,43.13
2018-09-04T00:34:33.901Z,42.73
2018-09-04T00:37:02.427Z,44.17
2018-09-04T00:39:31.097Z,46.40
2018-09-04T00:41:59.875Z,42.57
2018-09-04T00:44:28.550Z,47.00
2018-09-04T00:46:57.324Z,47.13
2018-09-04T00:49:25.871Z,48.37
2018-09-04T00:51:54.857Z,48.30
2018-09-04T00:54:23.652Z,51.37
2018-09-04T00:56:52.347Z,51.00
2018-09-04T00:59:21.043Z,48.20
2018-09-04T01:01:49.778Z,49.53
2018-09-04T01:04:18.473Z,53.43
2018-09-04T01:06:47.109Z,51.13
2018-09-04T01:09:18.705Z,53.53
2018-09-04T01:11:47.400Z,57.03
2018-09-04T01:14:16.176Z,54.77
2018-09-04T01:16:45.391Z,54.03
2018-09-04T01:19:14.307Z,58.50
2018-09-04T01:21:42.961Z,57.73
2018-09-04T01:24:12.239Z,60.70
2018-09-04T01:26:40.933Z,58.53
2018-09-04T01:29:09.613Z,58.97
2018-09-04T01:31:38.304Z,55.03
2018-09-04T01:34:07.001Z,52.77
2018-09-04T01:36:35.671Z,55.27
2018-09-04T01:39:04.770Z,52.00
2018-09-04T01:41:33.526Z,46.23
2018-09-04T01:44:02.185Z,49.20
2018-09-04T01:46:30.897Z,52.20
2018-09-04T01:48:59.492Z,49.93
2018-09-04T01:51:28.088Z,50.60
2018-09-04T01:53:56.724Z,47.33
2018-09-04T01:56:25.298Z,53.40
2018-09-04T01:58:53.943Z,54.13
2018-09-04T02:01:22.591Z,56.77
2018-09-04T02:03:51.445Z,53.93
2018-09-04T02:06:20.321Z,51.23
2018-09-04T02:08:48.956Z,46.13
2018-09-04T02:11:17.566Z,48.37
2018-09-04T02:13:46.248Z,53.03
2018-09-04T02:16:14.942Z,49.97
2018-09-04T02:18:43.677Z,44.27
2018-09-04T02:21:12.295Z,46.60
2018-09-04T02:23:40.857Z,49.37
2018-09-04T02:26:09.485Z,46.47
2018-09-04T02:28:38.448Z,47.30
2018-09-04T02:31:07.096Z,52.37
2018-09-04T02:33:35.832Z,51.47
2018-09-04T02:36:04.546Z,48.70
2018-09-04T02:38:33.222Z,48.60
2018-09-04T02:41:01.920Z,46.93
2018-09-04T02:43:30.675Z,44.83
2018-09-04T02:45:59.289Z,46.63
2018-09-04T02:48:27.950Z,49.80
2018-09-04T02:50:56.628Z,48.20
2018-09-04T02:53:25.335Z,53.40
2018-09-04T02:55:54.013Z,48.67
2018-09-04T02:58:22.726Z,48.97
2018-09-04T03:00:51.397Z,48.83
2018-09-04T03:03:20.037Z,53.30
2018-09-04T03:05:48.673Z,52.40
2018-09-04T03:08:17.327Z,49.80
2018-09-04T03:10:45.943Z,47.40
2018-09-04T03:13:14.700Z,49.20
2018-09-04T03:15:43.314Z,51.63
2018-09-04T03:18:11.969Z,48.30
2018-09-04T03:20:40.666Z,51.43
2018-09-04T03:23:09.419Z,50.73
2018-09-04T03:25:38.097Z,52.90
2018-09-04T03:28:06.825Z,48.83
2018-09-04T03:30:35.688Z,51.20
2018-09-04T03:33:04.384Z,57.00
2018-09-04T03:35:33.099Z,63.07
2018-09-04T03:38:08.233Z,66.93
2018-09-04T03:40:36.909Z,61.90
2018-09-04T03:43:05.845Z,57.47
2018-09-04T03:45:34.501Z,61.67
2018-09-04T03:48:03.777Z,55.00
2018-09-04T03:50:32.471Z,50.70
2018-09-04T03:53:01.066Z,53.13
2018-09-04T03:55:29.744Z,58.67
2018-09-04T03:57:58.436Z,61.83
2018-09-04T04:00:27.013Z,66.77
2018-09-04T04:02:55.707Z,63.00
2018-09-04T04:05:24.383Z,63.30
2018-09-04T04:07:53.058Z,59.17
2018-09-04T04:10:21.715Z,59.90
2018-09-04T04:12:50.410Z,56.93
2018-09-04T04:15:19.165Z,55.50
2018-09-04T04:17:47.823Z,57.70
2018-09-04T04:20:16.497Z,56.27
2018-09-04T04:22:45.134Z,58.97
2018-09-04T04:25:13.761Z,53.93
2018-09-04T04:27:42.562Z,60.80
2018-09-04T04:30:11.298Z,57.30
2018-09-04T04:32:40.194Z,55.80
2018-09-04T04:35:10.811Z,54.80
2018-09-04T04:37:41.967Z,52.93
2018-09-04T04:40:17.980Z,57.87
2018-09-04T04:42:47.966Z,57.30
2018-09-04T04:45:18.656Z,61.43
2018-09-04T04:47:47.701Z,60.33
2018-09-04T04:50:18.779Z,57.33
2018-09-04T04:52:47.884Z,64.63
2018-09-04T04:55:16.889Z,65.07
2018-09-04T04:57:46.031Z,64.67
2018-09-04T05:00:14.808Z,58.67
2018-09-04T05:02:43.378Z,61.27
2018-09-04T05:05:12.072Z,56.67
2018-09-04T05:07:40.849Z,59.60
2018-09-04T05:10:10.329Z,54.87
2018-09-04T05:12:38.979Z,65.53
2018-09-04T05:15:07.893Z,61.63
2018-09-04T05:17:36.589Z,60.20
2018-09-04T05:20:05.697Z,57.63
2018-09-04T05:22:34.419Z,53.90
2018-09-04T05:25:03.057Z,53.00
2018-09-04T05:27:31.750Z,49.57
2018-09-04T05:30:00.644Z,47.37
2018-09-04T05:32:44.460Z,45.13
2018-09-04T05:35:14.437Z,44.53
2018-09-04T05:37:43.923Z,47.60
2018-09-04T05:52:40.001Z,48.47
2018-09-04T08:33:39.684Z,33.20
2018-09-04T12:20:39.898Z,26.30
2018-09-04T12:23:08.837Z,27.70
2018-09-04T12:25:38.411Z,28.80
2018-09-04T12:28:07.692Z,29.20
2018-09-04T12:30:36.623Z,28.60
2018-09-04T12:33:05.532Z,26.00
2018-09-04T12:35:40.930Z,27.75
2018-09-04T12:38:11.200Z,24.10
2018-09-04T12:40:40.231Z,27.55
2018-09-04T12:43:09.238Z,24.23
2018-09-04T12:45:43.458Z,26.10
2018-09-04T12:50:41.587Z,25.70
2018-09-04T13:00:33.968Z,26.10
2018-09-04T13:03:03.184Z,27.73
2018-09-04T13:05:32.599Z,25.90
2018-09-04T13:08:01.656Z,25.13
2018-09-04T13:10:30.230Z,26.33
2018-09-04T13:12:59.107Z,26.60
2018-09-04T13:15:28.372Z,24.60
2018-09-04T13:17:57.477Z,25.30
2018-09-04T13:20:29.173Z,22.90
2018-09-04T13:23:04.048Z,25.40
2018-09-04T13:25:32.823Z,26.13
2018-09-04T13:28:01.539Z,23.87
2018-09-04T13:30:30.291Z,25.23
2018-09-04T13:32:59.010Z,25.13
2018-09-04T13:35:27.816Z,24.70
2018-09-04T13:37:57.260Z,26.67
2018-09-04T13:40:26.116Z,26.67
2018-09-04T13:42:55.117Z,24.00
2018-09-04T13:45:25.250Z,23.37
2018-09-04T13:47:54.051Z,24.67
2018-09-04T13:50:22.701Z,26.60
2018-09-04T13:52:51.414Z,24.13
2018-09-04T13:55:20.211Z,27.47
2018-09-04T13:57:48.948Z,23.20
2018-09-04T14:00:18.480Z,24.07
2018-09-04T14:02:47.296Z,26.07
2018-09-04T14:05:16.352Z,24.37
2018-09-04T14:07:45.026Z,27.17
2018-09-04T14:10:13.702Z,27.10
2018-09-04T14:12:42.458Z,28.43
2018-09-04T14:17:39.566Z,25.23
2018-09-04T15:46:33.387Z,23.60
2018-09-04T15:49:07.663Z,25.20
2018-09-04T15:51:36.711Z,21.60
2018-09-04T15:54:05.693Z,23.10
2018-09-04T15:56:34.406Z,23.20
2018-09-04T16:03:58.925Z,25.75
2018-09-04T16:08:55.654Z,26.40
2018-09-04T16:18:50.792Z,25.90
2018-09-04T16:21:19.612Z,28.50
2018-09-04T16:28:44.732Z,25.70
2018-09-04T16:31:16.605Z,24.90
2018-09-04T16:33:46.510Z,24.85
2018-09-04T16:58:33.774Z,32.20
2018-09-04T17:01:02.735Z,34.30
2018-09-04T17:03:32.150Z,34.95
2018-09-04T17:06:01.580Z,31.47
2018-09-04T17:11:01.418Z,34.83
2018-09-04T17:13:30.876Z,36.25
2018-09-04T17:16:00.251Z,35.57
2018-09-04T17:20:57.752Z,36.45
2018-09-04T17:28:23.732Z,40.70
2018-09-04T17:30:52.695Z,42.20
2018-09-04T17:33:21.291Z,38.13
2018-09-04T17:35:50.126Z,35.43
2018-09-04T17:38:19.065Z,38.80
2018-09-04T17:40:47.616Z,32.70
2018-09-04T17:43:16.229Z,31.27
2018-09-04T17:45:44.821Z,38.43
2018-09-04T17:48:13.782Z,31.60
2018-09-04T17:50:42.320Z,33.03
2018-09-04T17:53:10.953Z,32.73
2018-09-04T17:55:39.743Z,33.50
2018-09-04T18:03:04.956Z,32.70
2018-09-04T18:05:33.950Z,31.30
2018-09-04T18:08:02.826Z,33.67
2018-09-04T18:10:31.901Z,29.63
2018-09-04T18:13:01.043Z,33.37
2018-09-04T18:17:59.047Z,32.70
2018-09-04T18:20:28.824Z,32.03
2018-09-04T18:23:08.478Z,30.23
2018-09-04T18:25:37.234Z,34.87
2018-09-04T18:28:05.888Z,32.90
2018-09-04T18:30:35.044Z,33.43
2018-09-04T18:33:03.699Z,33.13
2018-09-04T18:35:32.304Z,29.33
2018-09-04T18:38:00.950Z,33.27
2018-09-04T18:40:29.565Z,32.57
2018-09-04T18:42:58.041Z,31.57
2018-09-04T18:45:46.492Z,28.87
2018-09-04T18:48:15.232Z,33.60
2018-09-04T18:50:44.047Z,33.70
2018-09-04T18:53:12.643Z,31.90
2018-09-04T18:55:41.232Z,31.80
2018-09-04T18:58:10.504Z,30.73
2018-09-04T19:25:19.244Z,30.90
2018-09-04T19:27:47.748Z,33.00
2018-09-04T19:30:16.376Z,30.30
2018-09-04T19:37:40.609Z,30.55
2018-09-04T19:42:37.904Z,33.47
2018-09-04T19:45:07.078Z,32.63
2018-09-04T19:47:35.505Z,31.50
2018-09-04T19:54:59.391Z,31.33
2018-09-04T19:57:27.839Z,33.77
2018-09-04T19:59:56.322Z,33.20
2018-09-04T20:02:24.968Z,34.60
2018-09-04T20:04:53.430Z,37.70
2018-09-04T20:12:17.368Z,37.10
2018-09-04T20:14:45.836Z,36.20
2018-09-04T20:17:14.280Z,37.20
2018-09-04T20:19:42.707Z,40.57
2018-09-04T20:22:11.611Z,38.83
2018-09-04T20:24:40.311Z,36.60
2018-09-04T20:27:08.761Z,37.90
2018-09-04T20:32:04.924Z,35.90
2018-09-04T20:34:33.333Z,37.00
2018-09-04T20:39:29.536Z,35.33
2018-09-04T20:46:54.200Z,39.20
2018-09-04T20:49:23.153Z,39.20
2018-09-04T20:51:51.905Z,38.43
2018-09-04T20:54:20.939Z,39.20
2018-09-04T20:56:55.019Z,38.00
2018-09-04T20:59:34.954Z,38.40
2018-09-04T21:02:14.909Z,40.57
2018-09-04T21:04:55.405Z,39.43
2018-09-04T21:07:42.778Z,37.55
2018-09-04T21:10:11.833Z,40.73
2018-09-04T21:12:40.710Z,42.50
2018-09-04T21:15:09.567Z,42.10
2018-09-04T21:17:38.653Z,43.60
2018-09-04T21:20:07.418Z,40.17
2018-09-04T21:22:36.253Z,38.00
2018-09-04T21:25:04.949Z,43.83
2018-09-04T21:27:33.764Z,38.73
2018-09-04T21:30:02.503Z,36.60
2018-09-04T21:32:31.374Z,37.50
2018-09-04T21:35:00.230Z,38.40
2018-09-04T21:37:29.520Z,36.93
2018-09-04T21:39:58.526Z,37.67
2018-09-04T21:42:27.290Z,37.70
2018-09-04T21:44:56.072Z,35.77
2018-09-04T21:47:24.847Z,37.40
2018-09-04T21:49:53.732Z,38.17
2018-09-04T21:52:22.419Z,35.97
2018-09-04T21:54:51.027Z,39.37
2018-09-04T21:57:20.130Z,43.23
2018-09-04T21:59:49.465Z,41.17
2018-09-04T22:02:19.061Z,42.60
2018-09-04T22:04:47.837Z,43.07
2018-09-04T22:07:16.672Z,44.60
2018-09-04T22:09:45.219Z,48.57
2018-09-04T22:12:14.023Z,45.33
2018-09-04T22:14:44.380Z,46.17
2018-09-04T22:17:13.274Z,47.77
2018-09-04T22:19:42.270Z,52.53
2018-09-04T22:22:11.205Z,46.57
2018-09-04T22:24:40.000Z,49.13
2018-09-04T22:27:09.996Z,50.57
2018-09-04T22:29:42.911Z,50.40
2018-09-04T22:32:13.167Z,52.70
2018-09-04T22:34:41.942Z,52.60
2018-09-04T22:37:11.538Z,49.37
2018-09-04T22:39:40.333Z,46.43
2018-09-04T22:42:09.189Z,53.30
2018-09-04T22:44:37.984Z,49.27
2018-09-04T22:47:07.141Z,48.67
2018-09-04T22:49:36.127Z,42.80
2018-09-04T22:52:05.412Z,43.67
2018-09-04T22:54:34.447Z,42.57
2018-09-04T22:57:03.453Z,42.57
2018-09-04T22:59:32.664Z,46.23
2018-09-04T23:02:01.774Z,41.47
2018-09-04T23:04:31.368Z,41.63
2018-09-04T23:07:00.303Z,40.00
2018-09-04T23:09:29.179Z,44.73
2018-09-04T23:11:58.076Z,41.67
2018-09-04T23:14:26.910Z,44.67
2018-09-04T23:16:55.638Z,40.10
2018-09-04T23:19:24.362Z,46.47
2018-09-04T23:21:53.042Z,41.80
2018-09-04T23:24:22.075Z,40.23
2018-09-04T23:26:51.309Z,41.87
2018-09-04T23:29:20.537Z,42.07
2018-09-04T23:31:49.439Z,40.37
2018-09-04T23:34:18.353Z,48.43
2018-09-04T23:36:47.229Z,48.47
2018-09-04T23:39:15.965Z,45.90
2018-09-04T23:41:45.006Z,43.37
2018-09-04T23:44:14.036Z,43.37
2018-09-04T23:46:42.961Z,39.93
2018-09-04T23:49:12.070Z,38.33
2018-09-04T23:51:40.974Z,42.33
2018-09-04T23:54:09.724Z,40.63
2018-09-04T23:56:38.884Z,43.00
2018-09-04T23:59:07.828Z,42.70
